Medlin's Ranch, Nevada Weather observations

Data are for observation ending at time listed.
 Day   Time    Ave.   Ave.  Ave.  Vector   Max.   Stn.    Total    Solar   Ave.  
  of    of     Air    Rel.  Wind   Wind    Wind   Baro.  Precip.   Rad.    Soil  
Year   Day     Temp.  Hum.  Speed  Dir.    Gust   Pres.                    Temp. 
2015   (PST)    F      %     mph   deg.    mph     mb.     in.     W/m2     F   
------------------------------------------------------------------------------
  88    0:00   52.9    21    4.7   278      8.3    868     0.00       0    66.3
  88    1:00   52.1    19    6.6   309     11.4    868     0.00       0    65.2
  88    2:00   55.8    17    5.7   313     11.1    868     0.00       0    64.2
  88    3:00   56.6    18    7.4   317     14.3    868     0.00       0    63.4
  88    4:00   54.2    20    6.4   321     12.1    868     0.00       0    62.7
  88    5:00   50.7    24    5.2   327      9.9    868     0.00       0    62.2
  88    6:00   46.6    28    4.6   326     10.3    868     0.00      10    61.5
  88    7:00   52.8    25    4.2   340      7.6    869     0.00     156    60.8
  88    8:00   62.8    18    4.2   352     10.5    869     0.00     397    60.6
  88    9:00   67.2    14    5.9    46     14.6    869     0.00     564    61.7
  88   10:00   69.4    13    6.2    54     14.9    869     0.00     708    63.6
  88   11:00   72.0    12    4.5    48     13.2    869     0.00     883    65.8
  88   12:00   74.6    11    4.4    79     13.6    868     0.00     963    68.5
  88   13:00   76.4    10    4.3   124     14.0    868     0.00     780    71.3
  88   14:00   78.2    10    3.1    91     11.1    867     0.00     850    73.4
  88   15:00   79.2     9    4.8   129     13.4    866     0.00     704    74.4
  88   16:00   78.3     9    5.9    88     12.6    866     0.00     512    75.1
  88   17:00   78.3     9    4.0   112     10.2    865     0.00     289    75.2
  88   18:00   75.6    10    3.4   138      9.6    865     0.00      79    74.5
  88   19:00   66.4    13    4.3   208      7.9    865     0.00       0    73.3
  88   20:00   60.0    15    4.5   218      7.9    866     0.00       0    71.8
  88   21:00   56.4    17    3.1   229      6.6    866     0.00       0    70.2
  88   22:00   53.1    19    2.8   281      5.7    866     0.00       0    68.8

Return to Medlin's Ranch, Nevada graphs page.


Western Regional Climate Center,wrcc@dri.edu